Aviation Digital Data Service (ADDS)

Output produced by METARs form (1113 UTC 24 April 2017)
found at http://www.aviationweather.gov/adds/metars/
 
ESSA 241050Z 17013KT CAVOK 09/M08 Q1002 R01L/19//95 R08/19//95 R01R/19//95 NOSIG
TAF ESSA 240530Z 2406/2506 18003KT CAVOK 
     BECMG 2412/2414 16013KT 
     BECMG 2414/2416 16015G25KT 2500 RASN BKN004 
     TEMPO 2416/2506 1200 SNRA BKN005
       
ESNX 241050Z AUTO 06007KT 030V090 9999 -SN OVC010/// M00/M03 Q1003 REFZRA
ESCF 241050Z 15013KT 9999 -RA SCT011 OVC025 03/03 Q0999
TAF ESCF 240830Z 2409/2415 15012G22KT 9999 BKN018 
     TEMPO 2409/2411 5000 RA BKN008 
     TEMPO 2411/2415 2000 RASN BKN004 RMK MIL
       
TAF ESCM 240900Z 2409/2414 16012KT CAVOK
       
ESDF 241050Z 21016KT 180V240 7000 -RASN BKN005 04/03 Q1005
TAF ESDF 240955Z 2409/2418 21012KT 9999 -RA BKN006 
     PROB40 2409/2415 BKN004 
     TEMPO 2409/2415 21015G28KT 4000 SHRA FEW012 BKN030CB 
     PROB40 2415/2418 NSW SCT020 RMK MIL
       
ESGG 241050Z 23016KT 9999 BKN010 06/04 Q0996
TAF ESGG 240530Z 2406/2506 24012KT 9999 -RA BKN009 
     TEMPO 2406/2411 2000 RADZ BR BKN003 
     BECMG 2408/2410 24015G25KT 
     BECMG 2411/2413 SCT030 
     PROB40 2503/2506 4000 RASN BKN005
       
ESGJ 241050Z 18012KT 7000 -RA BKN006 02/01 Q0997
TAF ESGJ 240830Z 2409/2418 17012KT 9999 -RA BKN006 
     TEMPO 2409/2413 2500 RASN BKN004 
     BECMG 2412/2414 24015G25KT SCT020
       
ESGR 241050Z AUTO 17012KT 9999 -RA BKN011/// OVC014/// 04/01 Q0996
ESGT 241050Z 24018G28KT 9999 SCT008 FEW012CB SCT020 07/04 Q0994
ESIB 241050Z AUTO 18018KT 9999 SCT010/// BKN033/// 06/05 Q0993
TAF ESIB 240830Z 2409/2415 16015G25KT 9999 RA BKN010 
     BECMG 2409/2411 22019G32KT NSW BKN017 
     TEMPO 2409/2411 2500 RASN BKN004 
     TEMPO 2411/2415 3000 SHRASN BKN008CB RMK MIL
       
ESKM 241050Z AUTO 10011KT 9999 FEW074/// 06/M08 Q0999
ESKN 241050Z 15016KT 9999 SCT014 SCT061 BKN070 05/01 Q1002
TAF ESKN 240530Z 2406/2506 VRB02KT CAVOK 
     BECMG 2408/2410 16010KT 
     BECMG 2411/2413 2500 RASN BKN004 
     TEMPO 2413/2419 8000 -RASN SCT004 BKN008 
     BECMG 2418/2420 22006KT 
     TEMPO 2500/2506 2000 SN VV010
       
ESMK 241050Z 20015KT 9999 FEW010 BKN013 06/05 Q1003
TAF ESMK 240803Z 2409/2418 21012KT 9999 BKN020 
     TEMPO 2409/2413 22015G25KT 4000 RADZ BR BKN010 
     TEMPO 2413/2415 24018G32KT 4000 SHRA BKN014 SCT020CB 
     BECMG 2415/2417 26012KT 
     TEMPO 2417/2418 27015G25KT
       
ESMQ 241050Z 19015KT 9999 DZ BKN011 BKN018 05/04 Q1004
TAF ESMQ 240830Z 2409/2418 21012KT 9999 -RA FEW010 BKN045 
     TEMPO 2409/2415 4000 RA BKN008 
     BECMG 2409/2411 20015G25KT
       
ESMS 241050Z 22022KT 9999 BKN015 OVC018 07/04 Q1004
TAF ESMS 240511Z 2406/2506 22018KT 9999 BKN018 
     TEMPO 2406/2413 22018G30KT 4000 RADZ BKN008 
     TEMPO 2413/2415 24020G30KT 4000 SHRA BKN014 SCT020CB 
     BECMG 2415/2417 27015KT 
     TEMPO 2417/2420 28018G28KT
       
ESMT 241050Z 22022KT 6000 RA BKN010 BKN014 07/06 Q1000
TAF ESMT 240803Z 2409/2418 22018KT 9999 BKN020 
     TEMPO 2409/2410 22018G28KT 4000 RADZ BR BKN008 
     TEMPO 2410/2413 24020G32KT 4000 SHRA BKN014 SCT020CB 
     BECMG 2413/2415 27018KT 
     TEMPO 2415/2418 28018G30KT
       
ESMX 241050Z 17017G28KT 9999 -RA FEW007 SCT008 OVC010 04/03 Q1000
TAF ESMX 240830Z 2409/2418 18013KT 9999 -RA SCT005 BKN010 
     TEMPO 2409/2410 2500 RASN BKN004 
     TEMPO 2410/2415 4000 RA BKN004 
     BECMG 2412/2415 24015G25KT SCT025
       
ESND 241050Z AUTO 09008KT 040V130 9999 FEW110/// SCT200/// 04/M11 Q1000
ESNG 241050Z AUTO 12009KT 9999 FEW015/// OVC022/// 00/M04 Q1005
ESNK 241050Z AUTO 12003KT 9999 BKN055/// 06/M03 Q1003
ESNL 241050Z AUTO 14005KT 110V170 9999 BKN047/// 04/M05 Q1003
ESNN 241050Z 15011KT CAVOK 07/M03 Q1003
TAF ESNN 240830Z 2409/2418 34006KT CAVOK 
     BECMG 2409/2411 15010KT
       
ESNO 241050Z AUTO 13010KT 100V170 9999 NCD 05/M03 Q1003
TAF ESNO 240830Z 2409/2418 14006KT CAVOK
       
ESNQ 241050Z VRB03KT 9999 OVC016 M02/M05 Q1005
TAF ESNQ 240830Z 2409/2418 04005KT 9000 -SN BKN007 
     PROB40 2409/2412 2000 BKN015 
     BECMG 2412/2414 BKN020 
     TEMPO 2414/2416 BKN012
       
ESNS 241050Z 23002KT 9999 SCT025 03/M02 Q1004
TAF ESNS 240830Z 2409/2418 28005KT 9999 BKN012 
     BECMG 2409/2411 BKN015
       
ESNU 241050Z 11007KT 9999 SCT040 06/01 Q1004 R14/09//95
TAF ESNU 240830Z 2409/2418 VRB03KT CAVOK 
     PROB40 2417/2418 BKN006
       
ESNV 241050Z AUTO 09003KT 030V140 9999 NCD 03/00 Q1002
ESNX 241050Z AUTO 06007KT 030V090 9999 -SN OVC010/// M00/M03 Q1003 REFZRA
ESNZ 241050Z 28005KT 250V310 CAVOK 02/M08 Q1001
TAF ESNZ 240830Z 2409/2418 10006KT CAVOK
       
ESOE 241050Z 12013KT 9999 -RA FEW007 OVC009 03/02 Q0998
TAF ESOE 240830Z 2409/2418 15010KT 9999 SCT020 BKN040 
     BECMG 2409/2411 RA BKN010 
     BECMG 2410/2412 14015G25KT 2000 SNRA BKN004 
     TEMPO 2412/2418 5000 -RA BKN008
       
ESOK 241050Z 12010KT 1200 R03/1300D R21/P1500N SN BKN003 01/01 Q0994
TAF AMD ESOK 241022Z 2410/2418 12010KT 5000 RASN BKN010 
     TEMPO 2410/2418 0600 SNRA BKN003
       
ESOW 241050Z 15016KT CAVOK 09/M08 Q1001
TAF ESOW 240830Z 2409/2417 16010KT CAVOK 
     BECMG 2413/2415 14015G25KT 2500 RASN BKN004 
     TEMPO 2415/2417 5000 -RA BKN010
       
ESPA 241050Z 09006KT 9999 FEW005 BKN007 01/M01 Q1005
TAF ESPA 240820Z 2409/2418 08005KT 9000 -SN BR BKN003 
     TEMPO 2409/2412 4000 BR BKN015 
     BECMG 2411/2414 9999 BKN015 RMK MIL
       
ESPE 241050Z 12005KT 9999 -SN BKN008 M01/M02 Q1005
TAF ESPE 240900Z 2409/2414 03005KT 5000 -SN BKN015 
     TEMPO 2409/2411 2000 +SN VV006 
     TEMPO 2411/2414 3000 SN BKN010 RMK MIL
       
ESSA 241050Z 17013KT CAVOK 09/M08 Q1002 R01L/19//95 R08/19//95 R01R/19//95 NOSIG
TAF ESSA 240530Z 2406/2506 18003KT CAVOK 
     BECMG 2412/2414 16013KT 
     BECMG 2414/2416 16015G25KT 2500 RASN BKN004 
     TEMPO 2416/2506 1200 SNRA BKN005
       
ESSB 241050Z 15014KT 110V180 CAVOK 08/M07 Q1003
TAF ESSB 240830Z 2409/2418 17010KT CAVOK 
     BECMG 2413/2415 2500 RASN BKN004 
     TEMPO 2415/2418 5000 -RA BKN010
       
ESSD 241050Z 12015KT CAVOK 06/M09 Q1000
TAF ESSD 240830Z 2409/2418 11010KT CAVOK 
     BECMG 2412/2414 3000 -SNRA 
     TEMPO 2414/2418 1200 SN VV010
       
ESSL 241050Z 16016KT 130V190 9999 RA BKN015 OVC022 04/02 Q0999
TAF ESSL 240830Z 2409/2418 15012G22KT 9999 BKN018 
     TEMPO 2409/2411 5000 RA BKN008 
     TEMPO 2411/2415 2000 RASN BKN004 
     PROB30 2415/2418 SHRA RMK MIL
       
ESSP 241050Z 15017KT 9999 -DZ BKN028 05/00 Q1001
TAF ESSP 240830Z 2409/2418 15008KT CAVOK 
     BECMG 2413/2415 3000 RA BKN004 
     BECMG 2415/2417 9999 SCT020 BKN030 
     PROB40 2415/2418 SHRA
       
ESST 241050Z AUTO 09008KT 050V130 1300 R16/1600N R34/1500D -SN VV008 01/00 Q0995
ESSV 241050Z 20017KT 9999 FEW028 SCT070 BKN100 07/00 Q1005
TAF ESSV 240830Z 2409/2418 21012KT CAVOK 
     BECMG 2411/2414 17015G27KT 8000 -RA BKN008 
     PROB40 2413/2418 3000 RA BKN004
       
ESTA 241050Z 18012KT 8000 -RA BKN015 07/05 Q1001
TAF ESTA 240803Z 2409/2418 21015KT 9999 BKN020 
     TEMPO 2409/2410 24018G28KT 4000 RADZ BR BKN008 
     TEMPO 2410/2413 24020G32KT 4000 SHRA BKN014 SCT020CB 
     BECMG 2413/2415 27018KT 
     TEMPO 2415/2418 28018G30KT
       
ESTL 241050Z 21017KT 9999 -RA SCT012 BKN021 BKN027 06/05 Q1002
TAF ESTL 240803Z 2409/2415 21015KT 9999 BKN020 
     TEMPO 2409/2411 24018G28KT 4000 RADZ BR BKN008 
     TEMPO 2411/2414 24020G32KT 4000 SHRA BKN014 SCT020CB 
     BECMG 2414/2415 27015KT
       
ESUD 241050Z AUTO VRB02KT 9999 FEW027/// OVC066/// 02/M05 Q1003
ESUP 241050Z AUTO 09005KT 030V130 9999 FEW033/// SCT048/// BKN057/// 02/M06 Q1006
ESUT 241050Z AUTO VRB06KT 9999 OVC048/// 00/M06 Q1002
ESSD 241050Z 12015KT CAVOK 06/M09 Q1000
TAF ESSD 240830Z 2409/2418 11010KT CAVOK 
     BECMG 2412/2414 3000 -SNRA 
     TEMPO 2414/2418 1200 SN VV010
       
ESSB 241050Z 15014KT 110V180 CAVOK 08/M07 Q1003
TAF ESSB 240830Z 2409/2418 17010KT CAVOK 
     BECMG 2413/2415 2500 RASN BKN004 
     TEMPO 2415/2418 5000 -RA BKN010
       
ESNG 241050Z AUTO 12009KT 9999 FEW015/// OVC022/// 00/M04 Q1005
ESMT 241050Z 22022KT 6000 RA BKN010 BKN014 07/06 Q1000
TAF ESMT 240803Z 2409/2418 22018KT 9999 BKN020 
     TEMPO 2409/2410 22018G28KT 4000 RADZ BR BKN008 
     TEMPO 2410/2413 24020G32KT 4000 SHRA BKN014 SCT020CB 
     BECMG 2413/2415 27018KT 
     TEMPO 2415/2418 28018G30KT
       
ESUT 241050Z AUTO VRB06KT 9999 OVC048/// 00/M06 Q1002
ESGJ 241050Z 18012KT 7000 -RA BKN006 02/01 Q0997
TAF ESGJ 240830Z 2409/2418 17012KT 9999 -RA BKN006 
     TEMPO 2409/2413 2500 RASN BKN004 
     BECMG 2412/2414 24015G25KT SCT020
       
ESPA 241050Z 09006KT 9999 FEW005 BKN007 01/M01 Q1005
TAF ESPA 240820Z 2409/2418 08005KT 9000 -SN BR BKN003 
     TEMPO 2409/2412 4000 BR BKN015 
     BECMG 2411/2414 9999 BKN015 RMK MIL
       
ESMQ 241050Z 19015KT 9999 DZ BKN011 BKN018 05/04 Q1004
TAF ESMQ 240830Z 2409/2418 21012KT 9999 -RA FEW010 BKN045 
     TEMPO 2409/2415 4000 RA BKN008 
     BECMG 2409/2411 20015G25KT
       
TAF ESIA 240830Z 2409/2414 16012G22KT 9999 RA BKN010 
     TEMPO 2409/2412 2000 RASN BKN004 
     BECMG 2410/2412 18019G32KT NSW BKN015 
     TEMPO 2412/2414 3000 SHRASN BKN008CB
       
ESOK 241050Z 12010KT 1200 R03/1300D R21/P1500N SN BKN003 01/01 Q0994
TAF AMD ESOK 241022Z 2410/2418 12010KT 5000 RASN BKN010 
     TEMPO 2410/2418 0600 SNRA BKN003
       
ESNQ 241050Z VRB03KT 9999 OVC016 M02/M05 Q1005
TAF ESNQ 240830Z 2409/2418 04005KT 9000 -SN BKN007 
     PROB40 2409/2412 2000 BKN015 
     BECMG 2412/2414 BKN020 
     TEMPO 2414/2416 BKN012
       
ESNK 241050Z AUTO 12003KT 9999 BKN055/// 06/M03 Q1003
ESMK 241050Z 20015KT 9999 FEW010 BKN013 06/05 Q1003
TAF ESMK 240803Z 2409/2418 21012KT 9999 BKN020 
     TEMPO 2409/2413 22015G25KT 4000 RADZ BR BKN010 
     TEMPO 2413/2415 24018G32KT 4000 SHRA BKN014 SCT020CB 
     BECMG 2415/2417 26012KT 
     TEMPO 2417/2418 27015G25KT
       
ESMX 241050Z 17017G28KT 9999 -RA FEW007 SCT008 OVC010 04/03 Q1000
TAF ESMX 240830Z 2409/2418 18013KT 9999 -RA SCT005 BKN010 
     TEMPO 2409/2410 2500 RASN BKN004 
     TEMPO 2410/2415 4000 RA BKN004 
     BECMG 2412/2415 24015G25KT SCT025
       
ESSP 241050Z 15017KT 9999 -DZ BKN028 05/00 Q1001
TAF ESSP 240830Z 2409/2418 15008KT CAVOK 
     BECMG 2413/2415 3000 RA BKN004 
     BECMG 2415/2417 9999 SCT020 BKN030 
     PROB40 2415/2418 SHRA
       
ESGG 241050Z 23016KT 9999 BKN010 06/04 Q0996
TAF ESGG 240530Z 2406/2506 24012KT 9999 -RA BKN009 
     TEMPO 2406/2411 2000 RADZ BR BKN003 
     BECMG 2408/2410 24015G25KT 
     BECMG 2411/2413 SCT030 
     PROB40 2503/2506 4000 RASN BKN005
       
ESTL 241050Z 21017KT 9999 -RA SCT012 BKN021 BKN027 06/05 Q1002
TAF ESTL 240803Z 2409/2415 21015KT 9999 BKN020 
     TEMPO 2409/2411 24018G28KT 4000 RADZ BR BKN008 
     TEMPO 2411/2414 24020G32KT 4000 SHRA BKN014 SCT020CB 
     BECMG 2414/2415 27015KT
       
ESNL 241050Z AUTO 14005KT 110V170 9999 BKN047/// 04/M05 Q1003
ESCF 241050Z 15013KT 9999 -RA SCT011 OVC025 03/03 Q0999
TAF ESCF 240830Z 2409/2415 15012G22KT 9999 BKN018 
     TEMPO 2409/2411 5000 RA BKN008 
     TEMPO 2411/2415 2000 RASN BKN004 RMK MIL
       
ESKM 241050Z AUTO 10011KT 9999 FEW074/// 06/M08 Q0999
ESOE 241050Z 12013KT 9999 -RA FEW007 OVC009 03/02 Q0998
TAF ESOE 240830Z 2409/2418 15010KT 9999 SCT020 BKN040 
     BECMG 2409/2411 RA BKN010 
     BECMG 2410/2412 14015G25KT 2000 SNRA BKN004 
     TEMPO 2412/2418 5000 -RA BKN008
       
ESNO 241050Z AUTO 13010KT 100V170 9999 NCD 05/M03 Q1003
TAF ESNO 240830Z 2409/2418 14006KT CAVOK
       
ESUP 241050Z AUTO 09005KT 030V130 9999 FEW033/// SCT048/// BKN057/// 02/M06 Q1006
ESDF 241050Z 21016KT 180V240 7000 -RASN BKN005 04/03 Q1005
TAF ESDF 240955Z 2409/2418 21012KT 9999 -RA BKN006 
     PROB40 2409/2415 BKN004 
     TEMPO 2409/2415 21015G28KT 4000 SHRA FEW012 BKN030CB 
     PROB40 2415/2418 NSW SCT020 RMK MIL
       
ESSL 241050Z 16016KT 130V190 9999 RA BKN015 OVC022 04/02 Q0999
TAF ESSL 240830Z 2409/2418 15012G22KT 9999 BKN018 
     TEMPO 2409/2411 5000 RA BKN008 
     TEMPO 2411/2415 2000 RASN BKN004 
     PROB30 2415/2418 SHRA RMK MIL
       
ESIB 241050Z AUTO 18018KT 9999 SCT010/// BKN033/// 06/05 Q0993
TAF ESIB 240830Z 2409/2415 16015G25KT 9999 RA BKN010 
     BECMG 2409/2411 22019G32KT NSW BKN017 
     TEMPO 2409/2411 2500 RASN BKN004 
     TEMPO 2411/2415 3000 SHRASN BKN008CB RMK MIL
       
ESKN 241050Z 15016KT 9999 SCT014 SCT061 BKN070 05/01 Q1002
TAF ESKN 240530Z 2406/2506 VRB02KT CAVOK 
     BECMG 2408/2410 16010KT 
     BECMG 2411/2413 2500 RASN BKN004 
     TEMPO 2413/2419 8000 -RASN SCT004 BKN008 
     BECMG 2418/2420 22006KT 
     TEMPO 2500/2506 2000 SN VV010
       
ESNS 241050Z 23002KT 9999 SCT025 03/M02 Q1004
TAF ESNS 240830Z 2409/2418 28005KT 9999 BKN012 
     BECMG 2409/2411 BKN015
       
ESGR 241050Z AUTO 17012KT 9999 -RA BKN011/// OVC014/// 04/01 Q0996
ESUD 241050Z AUTO VRB02KT 9999 FEW027/// OVC066/// 02/M05 Q1003
ESMS 241050Z 22022KT 9999 BKN015 OVC018 07/04 Q1004
TAF ESMS 240511Z 2406/2506 22018KT 9999 BKN018 
     TEMPO 2406/2413 22018G30KT 4000 RADZ BKN008 
     TEMPO 2413/2415 24020G30KT 4000 SHRA BKN014 SCT020CB 
     BECMG 2415/2417 27015KT 
     TEMPO 2417/2420 28018G28KT
       
ESNN 241050Z 15011KT CAVOK 07/M03 Q1003
TAF ESNN 240830Z 2409/2418 34006KT CAVOK 
     BECMG 2409/2411 15010KT
       
ESND 241050Z AUTO 09008KT 040V130 9999 FEW110/// SCT200/// 04/M11 Q1000
ESST 241050Z AUTO 09008KT 050V130 1300 R16/1600N R34/1500D -SN VV008 01/00 Q0995
ESGT 241050Z 24018G28KT 9999 SCT008 FEW012CB SCT020 07/04 Q0994
ESNU 241050Z 11007KT 9999 SCT040 06/01 Q1004 R14/09//95
TAF ESNU 240830Z 2409/2418 VRB03KT CAVOK 
     PROB40 2417/2418 BKN006
       
TAF ESCM 240900Z 2409/2414 16012KT CAVOK
       
ESOW 241050Z 15016KT CAVOK 09/M08 Q1001
TAF ESOW 240830Z 2409/2417 16010KT CAVOK 
     BECMG 2413/2415 14015G25KT 2500 RASN BKN004 
     TEMPO 2415/2417 5000 -RA BKN010
       
ESPE 241050Z 12005KT 9999 -SN BKN008 M01/M02 Q1005
TAF ESPE 240900Z 2409/2414 03005KT 5000 -SN BKN015 
     TEMPO 2409/2411 2000 +SN VV006 
     TEMPO 2411/2414 3000 SN BKN010 RMK MIL
       
ESNV 241050Z AUTO 09003KT 030V140 9999 NCD 03/00 Q1002
ESSV 241050Z 20017KT 9999 FEW028 SCT070 BKN100 07/00 Q1005
TAF ESSV 240830Z 2409/2418 21012KT CAVOK 
     BECMG 2411/2414 17015G27KT 8000 -RA BKN008 
     PROB40 2413/2418 3000 RA BKN004